Time;durP1;ratioP1;P1;durP2;ratioP2;P2;SDS_P1;SDS_P2;PMS_P1;PMS_P2;Temp;Humidity;BMP_temperature;BMP_pressure;BME280_temperature;BME280_humidity;BME280_pressure;Samples;Min_cycle;Max_cycle;Signal;HPM_P1;HPM_P2
2022/02/18 00:00:46;;;;;;;15.90;4.20;;;7.40;99.90;;;;;;475388;249;28560;-76
2022/02/18 00:02:48;;;;;;;16.40;3.93;;;7.50;99.90;;;;;;475501;249;28836;-77
2022/02/18 00:04:49;;;;;;;16.47;3.60;;;7.50;99.90;;;;;;475463;250;27919;-78
2022/02/18 00:06:50;;;;;;;18.23;4.37;;;7.50;99.90;;;;;;475471;249;28144;-77
2022/02/18 00:08:51;;;;;;;16.93;4.50;;;7.50;99.90;;;;;;475386;250;27806;-74
2022/02/18 00:10:53;;;;;;;18.87;4.05;;;7.50;99.90;;;;;;475536;250;28874;-78
2022/02/18 00:12:54;;;;;;;17.73;3.60;;;7.40;99.90;;;;;;475377;249;27956;-74
2022/02/18 00:14:55;;;;;;;11.60;3.70;;;7.40;99.90;;;;;;475380;249;28956;-74
2022/02/18 00:16:56;;;;;;;9.73;3.53;;;7.40;99.90;;;;;;475371;250;29258;-74
2022/02/18 00:18:58;;;;;;;13.50;4.20;;;7.40;99.90;;;;;;475373;249;27509;-74
2022/02/18 00:20:59;;;;;;;13.13;3.43;;;7.40;99.90;;;;;;475445;250;28840;-77
2022/02/18 00:23:00;;;;;;;20.10;4.30;;;7.40;99.90;;;;;;475407;249;28166;-78
2022/02/18 00:25:01;;;;;;;21.35;4.95;;;7.50;99.90;;;;;;475453;249;28778;-77
2022/02/18 00:27:03;;;;;;;11.75;3.83;;;7.50;99.90;;;;;;475380;250;27475;-74
2022/02/18 00:29:04;;;;;;;12.60;3.90;;;7.40;99.90;;;;;;475389;249;27875;-74
2022/02/18 00:31:05;;;;;;;11.12;3.30;;;7.40;99.90;;;;;;475372;250;28006;-75
2022/02/18 00:33:07;;;;;;;22.63;3.90;;;7.40;99.90;;;;;;475475;250;27467;-76
2022/02/18 00:35:08;;;;;;;22.00;3.90;;;7.40;99.90;;;;;;475493;249;27681;-76
2022/02/18 00:37:09;;;;;;;15.47;4.00;;;7.40;99.90;;;;;;475518;250;28634;-75
2022/02/18 00:39:10;;;;;;;19.70;4.10;;;7.50;99.90;;;;;;475573;249;27527;-78
2022/02/18 00:41:13;;;;;;;16.20;4.30;;;7.40;99.90;;;;;;475482;249;28180;-78
2022/02/18 00:43:13;;;;;;;16.43;3.63;;;7.40;99.90;;;;;;475380;250;28534;-76
2022/02/18 00:45:14;;;;;;;21.10;4.03;;;7.40;99.90;;;;;;475449;250;27886;-77
2022/02/18 00:47:15;;;;;;;13.23;3.80;;;7.40;99.90;;;;;;475471;249;28524;-77
2022/02/18 00:49:16;;;;;;;12.57;3.77;;;7.40;99.90;;;;;;475374;249;28376;-74
2022/02/18 00:51:18;;;;;;;10.60;3.10;;;7.40;99.90;;;;;;475373;249;28149;-74
2022/02/18 00:53:19;;;;;;;9.80;3.00;;;7.40;99.90;;;;;;475385;249;27966;-74
2022/02/18 00:55:20;;;;;;;14.53;4.53;;;7.40;99.90;;;;;;475364;249;28036;-74
2022/02/18 00:57:21;;;;;;;15.03;3.83;;;7.40;99.90;;;;;;475488;249;27966;-77
2022/02/18 00:59:23;;;;;;;15.20;3.67;;;7.40;99.90;;;;;;475486;250;28822;-75
2022/02/18 01:01:24;;;;;;;10.77;3.33;;;7.40;99.90;;;;;;475540;250;28708;-76
2022/02/18 01:03:25;;;;;;;14.57;3.92;;;7.40;99.90;;;;;;475500;250;27909;-77
2022/02/18 01:05:26;;;;;;;6.63;3.30;;;7.40;99.90;;;;;;475480;249;27523;-77
2022/02/18 01:07:28;;;;;;;19.53;4.50;;;7.40;99.90;;;;;;475394;250;27601;-74
2022/02/18 01:09:29;;;;;;;9.90;3.83;;;7.40;99.90;;;;;;475445;249;28389;-76
2022/02/18 01:11:30;;;;;;;17.30;4.23;;;7.30;99.90;;;;;;475512;249;28009;-77
2022/02/18 01:13:31;;;;;;;12.50;3.70;;;7.40;99.90;;;;;;475383;250;28216;-75
2022/02/18 01:15:33;;;;;;;10.77;3.17;;;7.40;99.90;;;;;;475374;249;29008;-74
2022/02/18 01:17:34;;;;;;;13.13;4.00;;;7.40;99.90;;;;;;475461;250;27690;-76
2022/02/18 01:19:35;;;;;;;13.57;3.90;;;7.40;99.90;;;;;;475468;249;28180;-76
2022/02/18 01:21:37;;;;;;;11.50;3.67;;;7.40;99.90;;;;;;475522;249;28442;-77
2022/02/18 01:23:38;;;;;;;15.48;4.00;;;7.30;99.90;;;;;;475492;249;27531;-78
2022/02/18 01:25:39;;;;;;;9.13;3.70;;;7.30;99.90;;;;;;475443;249;27469;-76
2022/02/18 01:27:41;;;;;;;13.50;3.40;;;7.30;99.90;;;;;;475461;249;27926;-77
2022/02/18 01:29:42;;;;;;;12.00;3.03;;;7.30;99.90;;;;;;475464;250;27591;-77
2022/02/18 01:31:43;;;;;;;15.57;4.10;;;7.30;99.90;;;;;;475495;250;28376;-77
2022/02/18 01:33:44;;;;;;;14.73;3.80;;;7.20;99.90;;;;;;475486;249;28295;-76
2022/02/18 01:35:45;;;;;;;10.27;3.63;;;7.20;99.90;;;;;;475363;250;29342;-73
2022/02/18 01:37:48;;;;;;;17.57;4.07;;;7.20;99.90;;;;;;475470;249;28860;-77
2022/02/18 01:39:48;;;;;;;15.10;3.30;;;7.20;99.90;;;;;;475315;250;27483;-75
2022/02/18 01:41:49;;;;;;;12.50;3.33;;;7.20;99.90;;;;;;475541;249;28865;-77
2022/02/18 01:43:50;;;;;;;9.35;2.90;;;7.20;99.90;;;;;;475611;249;28116;-77
2022/02/18 01:45:52;;;;;;;8.27;3.00;;;7.20;99.90;;;;;;475479;249;27555;-77
2022/02/18 01:47:53;;;;;;;9.82;3.45;;;7.20;99.90;;;;;;475381;250;27546;-77
2022/02/18 01:49:58;;;;;;;7.40;2.90;;;7.10;99.90;;;;;;475491;249;27430;-77
2022/02/18 01:51:55;;;;;;;11.55;3.40;;;7.10;99.90;;;;;;475153;250;29273;-77
2022/02/18 01:53:58;;;;;;;8.00;2.77;;;7.10;99.90;;;;;;475474;250;27461;-77
2022/02/18 01:55:58;;;;;;;9.80;2.95;;;7.20;99.90;;;;;;475436;250;28791;-76
2022/02/18 01:57:59;;;;;;;19.63;3.47;;;7.10;99.90;;;;;;475486;249;27478;-78
2022/02/18 02:00:00;;;;;;;12.50;4.07;;;7.20;99.90;;;;;;475477;249;28159;-78
2022/02/18 02:02:02;;;;;;;12.90;3.80;;;7.20;99.90;;;;;;475527;249;27791;-77
2022/02/18 02:04:03;;;;;;;11.05;3.25;;;7.20;99.90;;;;;;475381;249;27999;-74
2022/02/18 02:06:04;;;;;;;7.78;3.20;;;7.20;99.90;;;;;;475386;249;27427;-74
2022/02/18 02:08:06;;;;;;;12.23;4.60;;;7.20;99.90;;;;;;475543;249;27960;-77
2022/02/18 02:10:07;;;;;;;12.45;3.58;;;7.20;99.90;;;;;;475361;249;28493;-75
2022/02/18 02:12:08;;;;;;;18.45;3.78;;;7.20;99.90;;;;;;475389;250;27475;-75
2022/02/18 02:14:09;;;;;;;14.00;4.17;;;7.20;99.90;;;;;;475396;250;27534;-75
2022/02/18 02:16:10;;;;;;;7.37;3.00;;;7.20;99.90;;;;;;475387;249;28856;-75
2022/02/18 02:18:12;;;;;;;19.27;3.73;;;7.20;99.90;;;;;;475373;250;27484;-74
2022/02/18 02:20:13;;;;;;;7.70;3.10;;;7.20;99.90;;;;;;475372;250;28645;-75
2022/02/18 02:22:15;;;;;;;9.57;3.07;;;7.20;99.90;;;;;;475370;249;28010;-75
2022/02/18 02:24:15;;;;;;;8.90;3.10;;;7.20;99.90;;;;;;475534;250;28416;-78
2022/02/18 02:26:17;;;;;;;7.03;3.30;;;7.20;99.90;;;;;;475377;249;28741;-74
2022/02/18 02:28:18;;;;;;;6.97;2.73;;;7.20;99.90;;;;;;475590;249;28041;-77
2022/02/18 02:30:19;;;;;;;10.57;2.90;;;7.20;99.90;;;;;;475557;250;29677;-78
2022/02/18 02:32:20;;;;;;;9.68;3.40;;;7.20;99.90;;;;;;475562;249;27426;-77
2022/02/18 02:34:22;;;;;;;7.03;2.90;;;7.10;99.90;;;;;;475556;249;27533;-78
2022/02/18 02:36:23;;;;;;;6.40;2.62;;;7.20;99.90;;;;;;475546;249;28807;-78
2022/02/18 02:38:24;;;;;;;9.07;2.87;;;7.20;99.90;;;;;;475414;249;27435;-74
2022/02/18 02:40:25;;;;;;;8.55;3.00;;;7.20;99.90;;;;;;475399;249;27671;-74
2022/02/18 02:42:27;;;;;;;7.15;3.00;;;7.10;99.90;;;;;;475386;249;27887;-74
2022/02/18 02:44:28;;;;;;;11.47;3.30;;;7.10;99.90;;;;;;475399;249;27940;-74
2022/02/18 02:46:29;;;;;;;5.62;2.60;;;7.10;99.90;;;;;;475390;249;28928;-74
2022/02/18 02:48:30;;;;;;;13.80;3.20;;;7.10;99.90;;;;;;475420;250;27427;-75
2022/02/18 02:50:32;;;;;;;12.88;3.47;;;7.10;99.90;;;;;;475430;249;28728;-74
2022/02/18 02:52:33;;;;;;;10.60;3.80;;;7.20;99.90;;;;;;475384;250;27411;-75
2022/02/18 02:54:34;;;;;;;13.00;4.00;;;7.20;99.90;;;;;;475387;249;27466;-74
2022/02/18 02:56:36;;;;;;;12.10;3.20;;;7.20;99.90;;;;;;475381;250;29334;-75
2022/02/18 02:58:40;;;;;;;8.00;3.17;;;7.20;99.90;;;;;;475482;249;28460;-78
2022/02/18 03:00:38;;;;;;;6.87;3.00;;;7.20;99.90;;;;;;475090;250;28530;-75
2022/02/18 03:02:39;;;;;;;15.90;4.17;;;7.10;99.90;;;;;;475426;250;29708;-77
2022/02/18 03:04:41;;;;;;;10.60;2.70;;;7.10;99.90;;;;;;475421;250;28865;-77
2022/02/18 03:06:42;;;;;;;8.07;2.80;;;7.20;99.90;;;;;;475437;249;27466;-76
2022/02/18 03:08:43;;;;;;;14.17;3.17;;;7.20;99.90;;;;;;475460;249;27414;-77
2022/02/18 03:11:14;;;;;;;12.90;3.22;;;7.20;99.90;;;;;;475459;249;28908;-77
2022/02/18 03:12:46;;;;;;;10.93;3.20;;;7.20;99.90;;;;;;473777;250;27506;-77
2022/02/18 03:14:47;;;;;;;11.60;3.13;;;7.20;99.90;;;;;;469452;241;29317;-77
2022/02/18 03:16:48;;;;;;;7.73;3.60;;;7.20;99.90;;;;;;479454;248;29414;-76
2022/02/18 03:18:49;;;;;;;5.47;2.93;;;7.10;99.90;;;;;;479470;248;29187;-76
2022/02/18 03:20:51;;;;;;;7.47;2.93;;;7.20;99.90;;;;;;479480;248;27873;-75
2022/02/18 03:22:52;;;;;;;12.17;2.73;;;7.20;99.90;;;;;;479453;248;28489;-74
2022/02/18 03:24:53;;;;;;;15.10;3.30;;;7.20;99.90;;;;;;479480;247;28758;-74
2022/02/18 03:26:54;;;;;;;7.93;3.05;;;7.20;99.90;;;;;;479468;248;27830;-72
2022/02/18 03:28:56;;;;;;;9.63;3.42;;;7.20;99.90;;;;;;479491;248;27444;-73
2022/02/18 03:30:58;;;;;;;15.07;3.70;;;7.20;99.90;;;;;;479464;248;27430;-73
2022/02/18 03:32:58;;;;;;;11.50;3.33;;;7.20;99.90;;;;;;479367;248;28409;-77
2022/02/18 03:35:00;;;;;;;11.30;3.47;;;7.20;99.90;;;;;;479560;248;29283;-77
2022/02/18 03:37:01;;;;;;;9.02;2.90;;;7.20;99.90;;;;;;479534;248;29412;-76
2022/02/18 03:39:02;;;;;;;8.75;3.03;;;7.20;99.90;;;;;;479519;248;27395;-77
2022/02/18 03:41:03;;;;;;;10.50;3.07;;;7.20;99.90;;;;;;479550;248;27566;-77
2022/02/18 03:43:04;;;;;;;10.50;3.08;;;7.20;99.90;;;;;;479512;248;28797;-77
2022/02/18 03:45:06;;;;;;;7.10;2.90;;;7.20;99.90;;;;;;479468;248;27527;-75
2022/02/18 03:47:07;;;;;;;9.03;2.90;;;7.10;99.90;;;;;;479543;248;27894;-77
2022/02/18 03:49:08;;;;;;;10.63;2.87;;;7.10;99.90;;;;;;479538;248;28037;-77
2022/02/18 03:51:09;;;;;;;8.20;3.03;;;7.20;99.90;;;;;;479463;248;28545;-76
2022/02/18 03:53:11;;;;;;;6.23;2.60;;;7.20;99.90;;;;;;479487;248;28048;-77
2022/02/18 03:55:12;;;;;;;4.40;2.63;;;7.20;99.90;;;;;;479447;248;28424;-77
2022/02/18 03:57:13;;;;;;;5.13;3.00;;;7.20;99.90;;;;;;479470;248;29303;-76
2022/02/18 03:59:14;;;;;;;8.30;2.40;;;7.30;99.90;;;;;;479459;248;28273;-77
2022/02/18 04:01:16;;;;;;;4.70;3.10;;;7.30;99.90;;;;;;479476;248;28821;-76
2022/02/18 04:03:17;;;;;;;3.50;2.27;;;7.30;99.90;;;;;;479526;248;27732;-77
2022/02/18 04:05:18;;;;;;;8.67;2.97;;;7.20;99.90;;;;;;479510;248;28112;-78
2022/02/18 04:07:19;;;;;;;5.33;2.33;;;7.20;99.90;;;;;;479538;248;27915;-76
2022/02/18 04:09:21;;;;;;;3.67;2.13;;;7.20;99.90;;;;;;479514;248;28674;-77
2022/02/18 04:11:22;;;;;;;6.23;2.40;;;7.20;99.90;;;;;;479474;248;27929;-77
2022/02/18 04:13:23;;;;;;;5.67;2.20;;;7.20;99.90;;;;;;479445;248;28631;-76
2022/02/18 04:15:24;;;;;;;2.72;1.90;;;7.20;99.90;;;;;;479409;247;28153;-76
2022/02/18 04:17:27;;;;;;;3.03;2.00;;;7.20;99.90;;;;;;479490;248;27411;-76
2022/02/18 04:19:27;;;;;;;4.87;2.53;;;7.20;99.90;;;;;;479394;248;27959;-77
2022/02/18 04:21:28;;;;;;;5.45;2.47;;;7.30;99.90;;;;;;479507;248;29007;-76
2022/02/18 04:23:30;;;;;;;6.93;2.90;;;7.30;99.90;;;;;;479545;248;27866;-77
2022/02/18 04:25:31;;;;;;;10.73;2.77;;;7.30;99.90;;;;;;479436;248;27531;-77
2022/02/18 04:27:32;;;;;;;10.20;3.00;;;7.40;99.90;;;;;;479466;248;28850;-76
2022/02/18 04:29:33;;;;;;;9.68;3.12;;;7.30;99.90;;;;;;479480;248;27946;-76
2022/02/18 04:31:35;;;;;;;12.17;3.13;;;7.40;99.90;;;;;;479515;248;27533;-77
2022/02/18 04:33:36;;;;;;;11.40;3.07;;;7.40;99.90;;;;;;479440;248;28733;-77
2022/02/18 04:35:37;;;;;;;13.45;3.10;;;7.40;99.90;;;;;;479464;248;28244;-76
2022/02/18 04:37:38;;;;;;;10.77;4.03;;;7.40;99.90;;;;;;479488;248;27912;-77
2022/02/18 04:39:39;;;;;;;7.67;3.17;;;7.50;99.90;;;;;;479484;248;28018;-75
2022/02/18 04:41:42;;;;;;;12.93;3.33;;;7.40;99.90;;;;;;479474;248;28395;-77
2022/02/18 04:43:42;;;;;;;9.95;2.92;;;7.50;99.90;;;;;;479443;248;28983;-77
2022/02/18 04:45:43;;;;;;;8.00;2.67;;;7.40;99.90;;;;;;479531;248;27402;-76
2022/02/18 04:47:44;;;;;;;11.70;3.03;;;7.40;99.90;;;;;;479491;248;28747;-77
2022/02/18 04:49:46;;;;;;;5.57;2.25;;;7.40;99.90;;;;;;479481;248;27474;-77
2022/02/18 04:51:49;;;;;;;5.93;2.43;;;7.40;99.90;;;;;;479457;248;27527;-77
2022/02/18 04:53:48;;;;;;;5.60;2.47;;;7.40;99.90;;;;;;479341;248;27630;-77
2022/02/18 04:55:49;;;;;;;4.33;2.60;;;7.40;99.90;;;;;;479439;248;28741;-77
2022/02/18 04:57:51;;;;;;;7.63;2.57;;;7.50;99.90;;;;;;479454;248;27902;-76
2022/02/18 04:59:52;;;;;;;8.57;3.27;;;7.50;99.90;;;;;;479477;248;28417;-77
2022/02/18 05:01:53;;;;;;;11.10;2.90;;;7.50;99.90;;;;;;479441;248;28191;-77
2022/02/18 05:03:54;;;;;;;10.23;3.67;;;7.50;99.90;;;;;;479424;248;29115;-76
2022/02/18 05:05:56;;;;;;;14.20;3.80;;;7.50;99.90;;;;;;479438;248;28258;-77
2022/02/18 05:07:57;;;;;;;9.27;3.07;;;7.50;99.90;;;;;;479470;248;27706;-76
2022/02/18 05:09:58;;;;;;;10.40;3.60;;;7.50;99.90;;;;;;479455;248;27882;-77
2022/02/18 05:11:59;;;;;;;7.83;3.90;;;7.50;99.90;;;;;;479440;248;27787;-76
2022/02/18 05:14:01;;;;;;;11.70;3.53;;;7.50;99.90;;;;;;479425;248;27671;-77
2022/02/18 05:16:02;;;;;;;8.27;4.20;;;7.50;99.90;;;;;;479421;248;28050;-78
2022/02/18 05:18:03;;;;;;;13.03;4.20;;;7.40;99.90;;;;;;479457;248;27795;-78
2022/02/18 05:20:04;;;;;;;10.53;3.80;;;7.50;99.90;;;;;;479463;248;27973;-77
2022/02/18 05:22:06;;;;;;;8.33;3.30;;;7.50;99.90;;;;;;479445;248;28026;-78
2022/02/18 05:24:07;;;;;;;15.10;4.70;;;7.40;99.90;;;;;;479444;248;27691;-77
2022/02/18 05:26:08;;;;;;;10.07;4.10;;;7.40;99.90;;;;;;479421;248;27908;-78
2022/02/18 05:28:09;;;;;;;7.83;3.60;;;7.40;99.90;;;;;;479447;248;28386;-77
2022/02/18 05:30:11;;;;;;;13.50;3.63;;;7.40;99.90;;;;;;479433;248;28400;-76
2022/02/18 05:32:12;;;;;;;8.30;4.37;;;7.40;99.90;;;;;;479431;248;28328;-77
2022/02/18 05:34:13;;;;;;;8.60;3.80;;;7.40;99.90;;;;;;479444;248;28511;-77
2022/02/18 05:36:14;;;;;;;9.83;3.43;;;7.40;99.90;;;;;;479449;248;28748;-76
2022/02/18 05:38:16;;;;;;;8.33;2.90;;;7.40;99.90;;;;;;479478;248;28757;-77
2022/02/18 05:40:17;;;;;;;8.87;3.10;;;7.30;99.90;;;;;;479458;248;27954;-77
2022/02/18 05:42:18;;;;;;;7.40;3.37;;;7.30;99.90;;;;;;479523;248;27977;-77
2022/02/18 05:44:19;;;;;;;6.90;2.90;;;7.30;99.90;;;;;;479512;248;28722;-77
2022/02/18 05:46:21;;;;;;;6.60;3.17;;;7.40;99.90;;;;;;479464;248;28890;-77
2022/02/18 05:48:22;;;;;;;7.10;3.00;;;7.30;99.90;;;;;;479482;248;28254;-76
2022/02/18 05:50:23;;;;;;;5.50;3.00;;;7.30;99.90;;;;;;479471;248;27728;-77
2022/02/18 05:52:24;;;;;;;6.33;2.70;;;7.30;99.90;;;;;;479485;248;27869;-78
2022/02/18 05:54:26;;;;;;;7.50;2.90;;;7.30;99.90;;;;;;479476;248;27600;-77
2022/02/18 05:56:27;;;;;;;9.23;3.00;;;7.30;99.90;;;;;;479482;247;27643;-77
2022/02/18 05:58:28;;;;;;;8.47;3.23;;;7.30;99.90;;;;;;479488;248;27988;-78
2022/02/18 06:00:29;;;;;;;6.90;2.67;;;7.30;99.90;;;;;;479466;248;28078;-75
2022/02/18 06:02:31;;;;;;;5.70;2.87;;;7.30;99.90;;;;;;479444;248;28436;-76
2022/02/18 06:04:32;;;;;;;6.17;2.70;;;7.30;99.90;;;;;;479494;248;27922;-76
2022/02/18 06:06:33;;;;;;;8.27;3.07;;;7.30;99.90;;;;;;479476;247;28286;-77
2022/02/18 06:08:34;;;;;;;8.23;2.77;;;7.30;99.90;;;;;;479483;248;28546;-77
2022/02/18 06:10:36;;;;;;;8.50;3.53;;;7.30;99.90;;;;;;479514;248;28211;-77
2022/02/18 06:12:37;;;;;;;9.20;4.47;;;7.30;99.90;;;;;;479466;248;27895;-76
2022/02/18 06:14:38;;;;;;;7.93;3.40;;;7.30;99.90;;;;;;479486;248;27808;-76
2022/02/18 06:16:39;;;;;;;10.73;3.83;;;7.30;99.90;;;;;;479448;247;27948;-76
2022/02/18 06:18:41;;;;;;;12.63;3.93;;;7.40;99.90;;;;;;479670;248;28782;-77
2022/02/18 06:20:42;;;;;;;12.53;3.73;;;7.30;99.90;;;;;;479813;248;27394;-77
2022/02/18 06:22:43;;;;;;;10.70;3.10;;;7.40;99.90;;;;;;479777;247;28083;-77
2022/02/18 06:24:44;;;;;;;8.63;3.33;;;7.40;99.90;;;;;;479797;248;27882;-77
2022/02/18 06:26:46;;;;;;;6.87;3.20;;;7.40;99.90;;;;;;479780;248;28003;-77
2022/02/18 06:28:47;;;;;;;9.00;3.60;;;7.40;99.90;;;;;;479442;248;28026;-76
2022/02/18 06:30:48;;;;;;;12.03;4.17;;;7.40;99.90;;;;;;479615;247;28720;-77
2022/02/18 06:32:49;;;;;;;6.33;3.30;;;7.40;99.90;;;;;;479596;248;28082;-77
2022/02/18 06:34:51;;;;;;;8.40;3.90;;;7.40;99.90;;;;;;479597;247;28533;-76
2022/02/18 06:36:52;;;;;;;7.13;3.60;;;7.40;99.90;;;;;;479634;248;28042;-77
2022/02/18 06:38:53;;;;;;;7.10;3.47;;;7.40;99.90;;;;;;479599;248;29206;-77
2022/02/18 06:40:54;;;;;;;7.53;2.83;;;7.40;99.90;;;;;;479672;248;28463;-77
2022/02/18 06:42:56;;;;;;;7.77;3.57;;;7.40;99.90;;;;;;479806;248;27987;-76
2022/02/18 06:44:57;;;;;;;10.63;3.07;;;7.40;99.90;;;;;;479800;248;27857;-77
2022/02/18 06:46:58;;;;;;;6.10;2.87;;;7.40;99.90;;;;;;479851;248;27755;-77
2022/02/18 06:48:59;;;;;;;6.27;2.80;;;7.40;99.90;;;;;;479896;248;28055;-76
2022/02/18 06:51:01;;;;;;;7.30;3.10;;;7.40;99.90;;;;;;479844;248;27960;-76
2022/02/18 06:53:02;;;;;;;5.20;2.60;;;7.40;99.90;;;;;;479819;242;27996;-77
2022/02/18 06:55:03;;;;;;;5.30;3.33;;;7.40;99.90;;;;;;479633;248;27508;-76
2022/02/18 06:57:05;;;;;;;6.77;2.80;;;7.40;99.90;;;;;;479613;248;28020;-76
2022/02/18 06:59:06;;;;;;;3.60;2.67;;;7.40;99.90;;;;;;479634;248;28093;-76
2022/02/18 07:01:07;;;;;;;6.03;3.27;;;7.40;99.90;;;;;;479587;248;27787;-77
2022/02/18 07:03:08;;;;;;;7.33;2.90;;;7.40;99.90;;;;;;479614;248;28023;-77
2022/02/18 07:05:09;;;;;;;5.40;2.90;;;7.40;99.90;;;;;;479630;248;27816;-75
2022/02/18 07:07:11;;;;;;;7.20;2.70;;;7.50;99.90;;;;;;479587;248;27857;-76
2022/02/18 07:09:12;;;;;;;4.80;3.23;;;7.50;99.90;;;;;;479630;248;27949;-76
2022/02/18 07:11:13;;;;;;;4.30;2.80;;;7.50;99.90;;;;;;479582;248;28725;-75
2022/02/18 07:13:14;;;;;;;3.93;2.37;;;7.60;99.90;;;;;;479627;248;28301;-76
2022/02/18 07:15:16;;;;;;;5.73;2.50;;;7.60;99.90;;;;;;479568;248;28503;-75
2022/02/18 07:17:17;;;;;;;3.53;2.53;;;7.60;99.90;;;;;;479620;248;28015;-76
2022/02/18 07:19:18;;;;;;;3.80;2.23;;;7.60;99.90;;;;;;479621;248;28345;-76
2022/02/18 07:21:19;;;;;;;2.40;2.20;;;7.60;99.90;;;;;;479656;248;28355;-76
2022/02/18 07:23:21;;;;;;;3.13;2.23;;;7.70;99.90;;;;;;479620;248;27866;-77
2022/02/18 07:25:22;;;;;;;3.33;2.60;;;7.70;99.90;;;;;;479647;248;27863;-76
2022/02/18 07:27:23;;;;;;;4.50;1.70;;;7.70;99.90;;;;;;479612;248;28543;-76
2022/02/18 07:29:24;;;;;;;4.10;1.60;;;7.70;99.90;;;;;;479603;248;28079;-77
2022/02/18 07:31:26;;;;;;;4.23;1.70;;;7.80;99.90;;;;;;479614;248;27754;-76
2022/02/18 07:33:27;;;;;;;6.13;1.87;;;7.80;99.90;;;;;;479626;248;27776;-76
2022/02/18 07:35:37;;;;;;;3.40;1.70;;;7.90;99.90;;;;;;479799;248;27956;-77
2022/02/18 07:37:29;;;;;;;1.50;1.40;;;7.90;99.90;;;;;;478495;248;27510;-76
2022/02/18 07:39:31;;;;;;;3.03;1.67;;;7.90;99.90;;;;;;479602;248;28182;-77
2022/02/18 07:41:32;;;;;;;2.00;1.60;;;7.90;99.90;;;;;;479613;248;27894;-77
2022/02/18 07:43:33;;;;;;;2.87;1.73;;;7.90;99.90;;;;;;479589;247;28003;-77
2022/02/18 07:45:34;;;;;;;3.00;2.17;;;8.00;99.90;;;;;;479584;248;27869;-76
2022/02/18 07:47:36;;;;;;;3.53;1.80;;;8.00;99.90;;;;;;479571;248;28015;-76
2022/02/18 07:49:37;;;;;;;3.17;1.87;;;8.00;99.90;;;;;;479616;248;27483;-77
2022/02/18 07:51:38;;;;;;;1.60;1.50;;;8.10;99.90;;;;;;479566;248;28354;-76
2022/02/18 07:53:41;;;;;;;2.10;1.90;;;8.10;99.90;;;;;;479574;248;29168;-76
2022/02/18 07:55:41;;;;;;;5.70;2.20;;;8.20;99.90;;;;;;479525;248;28380;-76
2022/02/18 07:57:42;;;;;;;2.90;1.87;;;8.20;99.90;;;;;;479635;247;28367;-77
2022/02/18 07:59:43;;;;;;;1.93;1.63;;;8.30;99.90;;;;;;479601;248;28390;-76
2022/02/18 08:01:44;;;;;;;2.80;2.00;;;8.30;99.90;;;;;;479593;248;27875;-77
2022/02/18 08:03:46;;;;;;;2.47;2.10;;;8.30;99.90;;;;;;479578;248;27384;-77
2022/02/18 08:05:47;;;;;;;2.53;2.00;;;8.40;99.90;;;;;;479590;248;27384;-75
2022/02/18 08:07:48;;;;;;;2.70;2.40;;;8.40;99.90;;;;;;479606;248;27744;-77
2022/02/18 08:09:49;;;;;;;3.27;2.27;;;8.50;99.90;;;;;;479628;248;27742;-76
2022/02/18 08:11:51;;;;;;;4.23;1.90;;;8.50;99.90;;;;;;479569;248;27970;-76
2022/02/18 08:13:53;;;;;;;2.43;2.23;;;8.50;99.90;;;;;;479587;248;27688;-76
2022/02/18 08:15:53;;;;;;;2.60;1.83;;;8.60;99.90;;;;;;479570;246;27808;-75
2022/02/18 08:17:55;;;;;;;1.83;1.70;;;8.70;99.90;;;;;;479645;248;27918;-76
2022/02/18 08:19:58;;;;;;;2.27;2.00;;;8.70;99.90;;;;;;479584;248;27834;-77
2022/02/18 08:21:57;;;;;;;1.93;1.77;;;8.80;99.90;;;;;;479453;248;27622;-76
2022/02/18 08:23:58;;;;;;;2.27;1.70;;;8.70;99.90;;;;;;479610;248;28096;-76
2022/02/18 08:25:59;;;;;;;3.03;2.00;;;8.80;99.90;;;;;;479630;248;27863;-76
2022/02/18 08:28:01;;;;;;;2.90;1.80;;;8.80;99.90;;;;;;479605;248;27556;-77
2022/02/18 08:30:02;;;;;;;4.93;2.23;;;8.90;99.90;;;;;;479607;248;28235;-76
2022/02/18 08:32:03;;;;;;;1.70;1.57;;;8.90;99.90;;;;;;479588;248;28160;-76
2022/02/18 08:34:04;;;;;;;1.70;1.60;;;9.00;99.90;;;;;;479589;247;28207;-76
2022/02/18 08:36:06;;;;;;;4.20;1.50;;;9.00;99.90;;;;;;479612;248;28271;-76
2022/02/18 08:38:07;;;;;;;3.77;2.13;;;9.10;99.90;;;;;;479602;248;28383;-76
2022/02/18 08:40:08;;;;;;;5.07;1.83;;;9.20;99.90;;;;;;479599;248;27384;-76
2022/02/18 08:42:11;;;;;;;2.03;1.80;;;9.20;99.90;;;;;;479621;248;28027;-76
2022/02/18 08:44:14;;;;;;;2.40;1.90;;;9.20;99.90;;;;;;479576;248;27866;-77
2022/02/18 08:46:12;;;;;;;2.70;1.80;;;9.30;99.90;;;;;;479428;248;28002;-76
2022/02/18 08:48:13;;;;;;;2.20;1.53;;;9.30;99.90;;;;;;479564;248;27769;-76
2022/02/18 08:50:14;;;;;;;1.60;1.50;;;9.30;99.90;;;;;;479601;248;27387;-76
2022/02/18 08:52:16;;;;;;;1.50;1.40;;;9.40;99.90;;;;;;479595;248;27568;-76
2022/02/18 08:54:17;;;;;;;2.23;1.50;;;9.40;99.90;;;;;;479618;248;27998;-76
2022/02/18 08:56:18;;;;;;;3.80;1.63;;;9.40;99.90;;;;;;479618;248;27384;-76
2022/02/18 08:58:19;;;;;;;1.70;1.40;;;9.40;99.90;;;;;;479627;248;28098;-76
2022/02/18 09:00:21;;;;;;;2.70;1.80;;;9.40;99.90;;;;;;479631;248;28080;-76
2022/02/18 09:02:24;;;;;;;5.40;1.47;;;9.40;99.90;;;;;;479655;248;27767;-76
2022/02/18 09:04:23;;;;;;;2.07;1.80;;;9.50;99.90;;;;;;479529;248;28013;-76
2022/02/18 09:06:24;;;;;;;3.80;1.80;;;9.50;99.90;;;;;;479622;248;27747;-77
2022/02/18 09:08:26;;;;;;;2.13;1.50;;;9.50;99.90;;;;;;479612;248;28047;-76
2022/02/18 09:10:27;;;;;;;3.53;1.87;;;9.50;99.90;;;;;;479603;242;29139;-76
2022/02/18 09:12:29;;;;;;;3.50;1.60;;;9.50;99.90;;;;;;479614;248;27938;-76
2022/02/18 09:14:29;;;;;;;1.80;1.43;;;9.50;99.90;;;;;;479568;248;27808;-76
2022/02/18 09:16:31;;;;;;;1.70;1.57;;;9.60;99.90;;;;;;479590;248;27854;-76
2022/02/18 09:18:32;;;;;;;1.60;1.50;;;9.60;99.90;;;;;;479601;248;28045;-76
2022/02/18 09:20:33;;;;;;;1.90;1.53;;;9.60;99.90;;;;;;479614;248;28008;-75
2022/02/18 09:22:34;;;;;;;2.67;1.70;;;9.70;99.90;;;;;;479613;248;28465;-76
2022/02/18 09:24:36;;;;;;;1.60;1.50;;;9.70;99.90;;;;;;479595;248;28279;-76
2022/02/18 09:26:37;;;;;;;1.93;1.63;;;9.70;99.90;;;;;;479609;248;28068;-75
2022/02/18 09:28:38;;;;;;;3.77;1.77;;;9.80;99.90;;;;;;479574;248;28454;-77
2022/02/18 09:30:39;;;;;;;2.03;1.50;;;9.80;99.90;;;;;;479647;248;28643;-76
2022/02/18 09:32:41;;;;;;;1.73;1.50;;;9.80;99.90;;;;;;479632;248;27946;-75
2022/02/18 09:34:43;;;;;;;2.30;1.53;;;9.90;99.90;;;;;;479584;248;27891;-76
2022/02/18 09:36:43;;;;;;;2.80;1.90;;;9.90;99.90;;;;;;479516;248;27717;-77
2022/02/18 09:38:44;;;;;;;1.80;1.50;;;9.90;99.90;;;;;;479364;248;27589;-77
2022/02/18 09:40:46;;;;;;;1.73;1.60;;;9.90;99.90;;;;;;479527;248;27547;-76
2022/02/18 09:42:47;;;;;;;3.53;1.70;;;9.90;99.90;;;;;;479554;248;27388;-76
2022/02/18 09:44:48;;;;;;;1.60;1.50;;;10.00;99.90;;;;;;479588;248;27945;-77
2022/02/18 09:46:49;;;;;;;1.67;1.50;;;10.00;99.90;;;;;;479578;248;27955;-76
2022/02/18 09:48:51;;;;;;;1.90;1.60;;;10.00;99.90;;;;;;479591;248;28008;-76
2022/02/18 09:50:52;;;;;;;3.27;1.63;;;10.10;99.90;;;;;;479576;248;28094;-76
2022/02/18 09:52:53;;;;;;;2.17;1.53;;;10.20;99.90;;;;;;479597;248;27730;-76
2022/02/18 09:54:54;;;;;;;2.50;1.53;;;10.20;99.90;;;;;;479596;248;28453;-76
2022/02/18 09:56:56;;;;;;;1.50;1.40;;;10.20;99.90;;;;;;479593;248;28214;-75
2022/02/18 09:58:57;;;;;;;1.60;1.50;;;10.20;99.90;;;;;;479617;248;28045;-76
2022/02/18 10:00:59;;;;;;;1.97;1.70;;;10.20;99.90;;;;;;479640;248;28294;-77
2022/02/18 10:02:59;;;;;;;3.40;1.70;;;10.30;99.90;;;;;;479643;248;27883;-76
2022/02/18 10:05:01;;;;;;;3.67;1.43;;;10.30;99.90;;;;;;479616;248;27662;-77
2022/02/18 10:07:02;;;;;;;6.27;1.93;;;10.30;99.90;;;;;;479578;248;27887;-76
2022/02/18 10:09:03;;;;;;;2.27;1.67;;;10.30;99.90;;;;;;479618;248;28003;-77
2022/02/18 10:11:04;;;;;;;1.40;1.30;;;10.30;99.90;;;;;;479616;248;27668;-76
2022/02/18 10:13:06;;;;;;;1.80;1.40;;;10.30;99.90;;;;;;479603;248;27646;-76
2022/02/18 10:15:10;;;;;;;2.23;1.40;;;10.30;99.90;;;;;;479571;248;27914;-77
2022/02/18 10:17:11;;;;;;;1.53;1.43;;;10.40;99.90;;;;;;479590;248;28262;-77
2022/02/18 10:19:13;;;;;;;1.57;1.30;;;10.40;99.90;;;;;;479684;248;27863;-76
2022/02/18 10:21:14;;;;;;;3.13;1.30;;;10.50;99.90;;;;;;479588;248;27875;-76
2022/02/18 10:23:17;;;;;;;3.00;1.40;;;10.50;99.90;;;;;;479643;248;27809;-77
2022/02/18 10:25:16;;;;;;;1.30;1.20;;;10.50;99.90;;;;;;479488;248;27615;-76
2022/02/18 10:27:17;;;;;;;1.40;1.30;;;10.50;99.90;;;;;;479607;248;27935;-77
2022/02/18 10:29:19;;;;;;;1.20;1.20;;;10.50;99.90;;;;;;479600;248;28323;-76
2022/02/18 10:31:20;;;;;;;3.23;1.60;;;10.50;99.90;;;;;;479613;248;27860;-76
2022/02/18 10:33:22;;;;;;;2.70;1.40;;;10.50;99.90;;;;;;479612;248;27912;-76
2022/02/18 10:35:22;;;;;;;2.50;1.53;;;10.40;99.90;;;;;;479562;242;27895;-76